createdAt,value
2018-07-05T00:00:17.493Z,0
2018-07-05T00:01:17.506Z,0
2018-07-05T00:02:17.746Z,0
2018-07-05T00:03:18.011Z,0
2018-07-05T00:04:17.511Z,0
2018-07-05T00:05:17.532Z,0
2018-07-05T00:06:17.750Z,0
2018-07-05T00:07:18.039Z,0
2018-07-05T00:08:18.297Z,0
2018-07-05T00:09:18.029Z,0
2018-07-05T00:10:18.049Z,0
2018-07-05T00:11:17.763Z,0
2018-07-05T00:12:17.524Z,0
2018-07-05T00:13:17.535Z,0
2018-07-05T00:14:17.781Z,0
2018-07-05T00:15:18.032Z,0
2018-07-05T00:16:18.032Z,0
2018-07-05T00:17:18.020Z,0
2018-07-05T00:18:17.794Z,0
2018-07-05T00:19:17.554Z,0
2018-07-05T00:20:18.050Z,0
2018-07-05T00:21:18.033Z,0
2018-07-05T00:22:17.785Z,0
2018-07-05T00:23:18.050Z,0
2018-07-05T00:24:18.316Z,0
2018-07-05T00:25:17.792Z,0
2018-07-05T00:26:17.815Z,0
2018-07-05T00:27:18.067Z,0
2018-07-05T00:28:18.061Z,0
2018-07-05T00:29:17.826Z,0
2018-07-05T00:30:18.063Z,0
2018-07-05T00:31:18.056Z,0
2018-07-05T00:32:18.063Z,0
2018-07-05T00:33:17.620Z,0
2018-07-05T00:34:17.837Z,0
2018-07-05T00:35:18.081Z,0
2018-07-05T00:36:17.577Z,0
2018-07-05T00:37:18.068Z,0
2018-07-05T00:38:17.833Z,0
2018-07-05T00:39:17.567Z,0
2018-07-05T00:40:17.844Z,0
2018-07-05T00:41:18.120Z,0
2018-07-05T00:42:17.647Z,0
2018-07-05T00:43:18.089Z,0
2018-07-05T00:44:19.698Z,0
2018-07-05T00:45:17.844Z,0
2018-07-05T00:46:18.108Z,0
2018-07-05T00:47:18.357Z,0
2018-07-05T00:48:18.353Z,0
2018-07-05T00:49:18.572Z,0
2018-07-05T00:50:17.857Z,0
2018-07-05T00:51:17.846Z,0
2018-07-05T00:52:18.346Z,0
2018-07-05T00:53:17.873Z,0
2018-07-05T00:54:18.127Z,0
2018-07-05T00:55:18.111Z,0
2018-07-05T00:56:18.115Z,0
2018-07-05T00:57:17.849Z,0
2018-07-05T00:58:17.891Z,0
2018-07-05T00:59:17.849Z,0
2018-07-05T01:00:18.107Z,0
2018-07-05T01:01:17.886Z,0
2018-07-05T01:02:17.616Z,0
2018-07-05T01:03:18.397Z,0
2018-07-05T01:04:17.616Z,0
2018-07-05T01:05:18.113Z,0
2018-07-05T01:06:17.865Z,0
2018-07-05T01:07:18.122Z,0
2018-07-05T01:08:18.423Z,0
2018-07-05T01:09:18.164Z,0
2018-07-05T01:10:18.958Z,0
2018-07-05T01:11:18.121Z,0
2018-07-05T01:12:17.883Z,0
2018-07-05T01:13:17.884Z,0
2018-07-05T01:14:17.969Z,0
2018-07-05T01:15:18.677Z,0
2018-07-05T01:16:17.642Z,0
2018-07-05T01:17:17.909Z,0
2018-07-05T01:18:17.666Z,0
2018-07-05T01:19:18.157Z,0
2018-07-05T01:20:18.157Z,0
2018-07-05T01:21:17.670Z,0
2018-07-05T01:22:18.409Z,0
2018-07-05T01:23:18.442Z,0
2018-07-05T01:24:17.665Z,0
2018-07-05T01:25:18.173Z,0
2018-07-05T01:26:18.156Z,0
2018-07-05T01:27:18.163Z,0
2018-07-05T01:28:17.922Z,0
2018-07-05T01:29:17.928Z,0
2018-07-05T01:30:17.928Z,0
2018-07-05T01:31:18.187Z,0
2018-07-05T01:32:18.465Z,0
2018-07-05T01:33:17.664Z,0
2018-07-05T01:34:18.176Z,0
2018-07-05T01:35:17.713Z,0
2018-07-05T01:36:18.180Z,0
2018-07-05T01:37:17.930Z,0
2018-07-05T01:38:18.177Z,0
2018-07-05T01:39:17.694Z,0
2018-07-05T01:40:18.475Z,0
2018-07-05T01:41:18.178Z,0
2018-07-05T01:42:18.178Z,0
2018-07-05T01:43:17.452Z,0
2018-07-05T01:44:17.929Z,0
2018-07-05T01:45:18.183Z,0
2018-07-05T01:46:18.195Z,0
2018-07-05T01:47:18.560Z,0
2018-07-05T01:48:17.686Z,0
2018-07-05T01:49:17.941Z,0
2018-07-05T01:50:18.196Z,0
2018-07-05T01:51:18.475Z,0
2018-07-05T01:52:18.478Z,0
2018-07-05T01:53:17.705Z,0
2018-07-05T01:54:17.956Z,0
2018-07-05T01:55:17.984Z,0
2018-07-05T01:56:17.714Z,0
2018-07-05T01:57:18.223Z,0
2018-07-05T01:58:18.200Z,0
2018-07-05T01:59:18.002Z,0
2018-07-05T02:00:17.724Z,0
2018-07-05T02:01:17.984Z,0
2018-07-05T02:02:18.465Z,0
2018-07-05T02:03:18.208Z,0
2018-07-05T02:04:18.235Z,0
2018-07-05T02:05:18.466Z,0
2018-07-05T02:06:18.217Z,0
2018-07-05T02:07:17.721Z,0
2018-07-05T02:08:18.477Z,0
2018-07-05T02:09:17.971Z,0
2018-07-05T02:10:18.235Z,0
2018-07-05T02:11:18.495Z,0
2018-07-05T02:12:17.962Z,0
2018-07-05T02:13:18.213Z,0
2018-07-05T02:14:17.728Z,0
2018-07-05T02:15:17.970Z,0
2018-07-05T02:16:19.331Z,0
2018-07-05T02:17:17.993Z,0
2018-07-05T02:18:17.729Z,0
2018-07-05T02:19:17.740Z,0
2018-07-05T02:20:18.229Z,0
2018-07-05T02:21:17.991Z,0
2018-07-05T02:22:18.247Z,0
2018-07-05T02:23:17.991Z,0
2018-07-05T02:24:17.751Z,0
2018-07-05T02:25:17.732Z,0
2018-07-05T02:26:18.013Z,0
2018-07-05T02:27:17.990Z,0
2018-07-05T02:28:17.984Z,0
2018-07-05T02:29:18.268Z,0
2018-07-05T02:30:18.004Z,0
2018-07-05T02:31:18.516Z,0
2018-07-05T02:32:17.772Z,0
2018-07-05T02:33:18.003Z,0
2018-07-05T02:34:18.544Z,0
2018-07-05T02:35:18.013Z,0
2018-07-05T02:36:18.011Z,0
2018-07-05T02:37:18.272Z,0
2018-07-05T02:38:18.551Z,0
2018-07-05T02:39:18.280Z,0
2018-07-05T02:40:17.526Z,0
2018-07-05T02:41:18.017Z,0
2018-07-05T02:42:18.273Z,0
2018-07-05T02:43:18.062Z,0
2018-07-05T02:44:18.272Z,0
2018-07-05T02:45:18.562Z,0
2018-07-05T02:46:18.043Z,0
2018-07-05T02:47:18.323Z,0
2018-07-05T02:48:18.312Z,0
2018-07-05T02:49:18.551Z,0
2018-07-05T02:50:18.319Z,0
2018-07-05T02:51:18.057Z,0
2018-07-05T02:52:18.042Z,0
2018-07-05T02:53:18.277Z,0
2018-07-05T02:54:18.291Z,0
2018-07-05T02:55:18.024Z,0
2018-07-05T02:56:18.301Z,0
2018-07-05T02:57:18.040Z,0
2018-07-05T02:58:18.062Z,0
2018-07-05T02:59:18.302Z,0
2018-07-05T03:00:18.296Z,0
2018-07-05T03:01:18.292Z,0
2018-07-05T03:02:18.056Z,0
2018-07-05T03:03:18.328Z,0
2018-07-05T03:04:18.051Z,0
2018-07-05T03:05:18.565Z,0
2018-07-05T03:06:18.331Z,0
2018-07-05T03:07:18.307Z,0
2018-07-05T03:08:18.600Z,0
2018-07-05T03:09:18.310Z,0
2018-07-05T03:10:17.824Z,0
2018-07-05T03:11:18.052Z,0
2018-07-05T03:12:18.071Z,0
2018-07-05T03:13:18.300Z,0
2018-07-05T03:14:18.401Z,0
2018-07-05T03:15:18.341Z,0
2018-07-05T03:16:18.075Z,0
2018-07-05T03:17:18.425Z,5
2018-07-05T03:18:18.322Z,5
2018-07-05T03:19:18.100Z,5
2018-07-05T03:20:18.586Z,5
2018-07-05T03:21:17.819Z,5
2018-07-05T03:22:18.337Z,5
2018-07-05T03:23:18.355Z,5
2018-07-05T03:24:18.063Z,5
2018-07-05T03:25:18.336Z,5
2018-07-05T03:26:18.315Z,10
2018-07-05T03:27:18.327Z,10
2018-07-05T03:28:18.122Z,10
2018-07-05T03:29:18.079Z,10
2018-07-05T03:30:18.631Z,10
2018-07-05T03:31:18.341Z,15
2018-07-05T03:32:18.602Z,15
2018-07-05T03:33:18.073Z,15
2018-07-05T03:34:18.327Z,15
2018-07-05T03:35:18.087Z,20
2018-07-05T03:36:18.609Z,20
2018-07-05T03:37:18.618Z,20
2018-07-05T03:38:18.345Z,20
2018-07-05T03:39:18.468Z,25
2018-07-05T03:40:18.357Z,25
2018-07-05T03:41:18.329Z,25
2018-07-05T03:42:18.091Z,25
2018-07-05T03:43:18.094Z,30
2018-07-05T03:44:18.327Z,30
2018-07-05T03:45:18.088Z,30
2018-07-05T03:46:17.851Z,30
2018-07-05T03:47:18.096Z,30
2018-07-05T03:48:18.377Z,35
2018-07-05T03:49:18.408Z,35
2018-07-05T03:50:18.122Z,40
2018-07-05T03:51:18.104Z,40
2018-07-05T03:52:18.122Z,45
2018-07-05T03:53:18.096Z,45
2018-07-05T03:54:17.846Z,50
2018-07-05T03:55:18.373Z,55
2018-07-05T03:56:18.350Z,55
2018-07-05T03:57:18.639Z,60
2018-07-05T03:58:18.121Z,70
2018-07-05T03:59:18.364Z,85
2018-07-05T04:00:18.347Z,90
2018-07-05T04:01:17.850Z,95
2018-07-05T04:02:18.358Z,100
2018-07-05T04:03:18.615Z,100
2018-07-05T04:04:17.867Z,95
2018-07-05T04:05:18.085Z,90
2018-07-05T04:06:18.654Z,85
2018-07-05T04:07:18.648Z,80
2018-07-05T04:08:18.171Z,75
2018-07-05T04:09:18.364Z,80
2018-07-05T04:10:18.380Z,80
2018-07-05T04:11:18.637Z,80
2018-07-05T04:12:17.864Z,80
2018-07-05T04:13:18.372Z,85
2018-07-05T04:14:18.394Z,85
2018-07-05T04:15:18.665Z,80
2018-07-05T04:16:18.283Z,80
2018-07-05T04:17:18.407Z,80
2018-07-05T04:18:18.430Z,80
2018-07-05T04:19:18.673Z,80
2018-07-05T04:20:18.674Z,80
2018-07-05T04:21:18.679Z,80
2018-07-05T04:22:18.161Z,80
2018-07-05T04:23:18.678Z,85
2018-07-05T04:24:18.563Z,85
2018-07-05T04:25:18.178Z,75
2018-07-05T04:26:18.144Z,80
2018-07-05T04:27:18.160Z,80
2018-07-05T04:28:18.406Z,80
2018-07-05T04:29:18.156Z,90
2018-07-05T04:30:17.912Z,95
2018-07-05T04:31:18.431Z,105
2018-07-05T04:32:18.414Z,105
2018-07-05T04:33:18.405Z,110
2018-07-05T04:34:18.710Z,100
2018-07-05T04:35:18.412Z,100
2018-07-05T04:36:18.710Z,115
2018-07-05T04:37:18.414Z,115
2018-07-05T04:38:18.409Z,115
2018-07-05T04:39:18.448Z,105
2018-07-05T04:40:18.452Z,125
2018-07-05T04:41:18.685Z,125
2018-07-05T04:42:17.940Z,135
2018-07-05T04:43:18.446Z,135
2018-07-05T04:44:18.462Z,140
2018-07-05T04:45:18.451Z,145
2018-07-05T04:46:18.871Z,135
2018-07-05T04:47:18.725Z,125
2018-07-05T04:48:18.456Z,60
2018-07-05T04:49:18.736Z,60
2018-07-05T04:50:18.734Z,60
2018-07-05T04:51:18.475Z,65
2018-07-05T04:52:18.722Z,65
2018-07-05T04:53:17.972Z,65
2018-07-05T04:54:18.751Z,70
2018-07-05T04:55:18.479Z,70
2018-07-05T04:56:18.785Z,70
2018-07-05T04:57:18.503Z,75
2018-07-05T04:58:18.476Z,75
2018-07-05T04:59:18.507Z,75
2018-07-05T05:00:18.253Z,70
2018-07-05T05:01:18.244Z,70
2018-07-05T05:02:18.539Z,70
2018-07-05T05:03:18.505Z,70
2018-07-05T05:04:18.537Z,65
2018-07-05T05:05:18.520Z,65
2018-07-05T05:06:17.756Z,65
2018-07-05T05:07:18.271Z,60
2018-07-05T05:08:18.780Z,60
2018-07-05T05:09:18.285Z,60
2018-07-05T05:10:18.259Z,60
2018-07-05T05:11:18.579Z,60
2018-07-05T05:12:18.799Z,60
2018-07-05T05:13:18.547Z,55
2018-07-05T05:14:18.532Z,55
2018-07-05T05:15:18.821Z,50
2018-07-05T05:16:19.047Z,50
2018-07-05T05:17:18.823Z,45
2018-07-05T05:18:18.299Z,45
2018-07-05T05:19:18.814Z,45
2018-07-05T05:20:18.815Z,40
2018-07-05T05:21:18.293Z,40
2018-07-05T05:22:18.293Z,40
2018-07-05T05:23:18.585Z,40
2018-07-05T05:24:19.052Z,40
2018-07-05T05:25:18.586Z,40
2018-07-05T05:26:19.367Z,40
2018-07-05T05:27:18.830Z,40
2018-07-05T05:28:18.319Z,40
2018-07-05T05:29:18.852Z,40
2018-07-05T05:30:18.582Z,40
2018-07-05T05:31:18.598Z,40
2018-07-05T05:32:18.624Z,40
2018-07-05T05:33:18.332Z,40
2018-07-05T05:34:18.097Z,40
2018-07-05T05:35:18.601Z,40
2018-07-05T05:36:18.866Z,40
2018-07-05T05:37:18.082Z,40
2018-07-05T05:38:18.604Z,45
2018-07-05T05:39:18.368Z,45
2018-07-05T05:40:18.603Z,45
2018-07-05T05:41:18.867Z,50
2018-07-05T05:42:18.632Z,55
2018-07-05T05:43:18.619Z,55
2018-07-05T05:44:18.863Z,60
2018-07-05T05:45:18.629Z,65
2018-07-05T05:46:18.600Z,70
2018-07-05T05:47:20.363Z,80
2018-07-05T05:48:19.285Z,85
2018-07-05T05:49:18.353Z,85
2018-07-05T05:50:18.626Z,90
2018-07-05T05:51:18.617Z,95
2018-07-05T05:52:18.621Z,100
2018-07-05T05:53:18.379Z,105
2018-07-05T05:54:18.924Z,110
2018-07-05T05:55:18.881Z,115
2018-07-05T05:56:19.609Z,120
2018-07-05T05:57:18.621Z,120
2018-07-05T05:58:18.362Z,125
2018-07-05T05:59:18.373Z,130
2018-07-05T06:00:18.119Z,130
2018-07-05T06:01:18.925Z,130
2018-07-05T06:02:18.656Z,135
2018-07-05T06:03:18.381Z,135
2018-07-05T06:04:18.904Z,140
2018-07-05T06:05:18.405Z,140
2018-07-05T06:06:18.942Z,145
2018-07-05T06:07:18.430Z,150
2018-07-05T06:08:18.544Z,150
2018-07-05T06:09:18.924Z,150
2018-07-05T06:10:18.422Z,155
2018-07-05T06:11:18.448Z,160
2018-07-05T06:12:18.427Z,160
2018-07-05T06:13:18.443Z,165
2018-07-05T06:14:18.695Z,170
2018-07-05T06:24:36.523Z,180
2018-07-05T06:25:36.725Z,185
2018-07-05T06:26:36.274Z,185
2018-07-05T06:27:36.529Z,190
2018-07-05T06:28:36.551Z,190
2018-07-05T06:29:36.273Z,195
2018-07-05T06:30:36.298Z,195
2018-07-05T06:31:36.058Z,200
2018-07-05T06:32:35.810Z,200
2018-07-05T06:33:36.051Z,200
2018-07-05T06:34:36.560Z,210
2018-07-05T06:35:36.422Z,205
2018-07-05T06:36:36.591Z,210
2018-07-05T06:37:36.554Z,215
2018-07-05T06:38:36.339Z,220
2018-07-05T06:39:36.529Z,235
2018-07-05T06:40:36.329Z,240
2018-07-05T06:41:36.065Z,245
2018-07-05T06:42:36.330Z,245
2018-07-05T06:43:36.578Z,240
2018-07-05T06:44:36.076Z,245
2018-07-05T06:45:36.330Z,245
2018-07-05T06:46:36.338Z,255
2018-07-05T06:47:37.037Z,265
2018-07-05T06:48:36.084Z,260
2018-07-05T06:49:36.139Z,270
2018-07-05T06:50:36.427Z,275
2018-07-05T06:51:36.382Z,280
2018-07-05T06:52:36.358Z,275
2018-07-05T06:53:36.620Z,325
2018-07-05T06:54:36.617Z,420
2018-07-05T06:55:36.719Z,330
2018-07-05T06:56:36.642Z,400
2018-07-05T06:57:36.508Z,405
2018-07-05T06:58:36.376Z,305
2018-07-05T06:59:35.879Z,310
2018-07-05T07:00:36.485Z,310
2018-07-05T07:01:36.386Z,320
2018-07-05T07:02:36.437Z,300
2018-07-05T07:03:36.420Z,285
2018-07-05T07:04:36.169Z,285
2018-07-05T07:05:36.410Z,285
2018-07-05T07:06:36.670Z,290
2018-07-05T07:07:36.475Z,290
2018-07-05T07:08:36.695Z,285
2018-07-05T07:09:36.209Z,270
2018-07-05T07:10:36.531Z,260
2018-07-05T07:11:36.452Z,255
2018-07-05T07:12:36.196Z,245
2018-07-05T07:13:36.727Z,240
2018-07-05T07:14:36.207Z,240
2018-07-05T07:15:36.467Z,240
2018-07-05T07:16:36.481Z,240
2018-07-05T07:17:36.225Z,245
2018-07-05T07:18:36.760Z,255
2018-07-05T07:19:36.740Z,260
2018-07-05T07:20:36.501Z,270
2018-07-05T07:21:37.037Z,285
2018-07-05T07:22:36.761Z,340
2018-07-05T07:23:36.757Z,420
2018-07-05T07:24:36.515Z,455
2018-07-05T07:25:36.528Z,430
2018-07-05T07:26:36.514Z,365
2018-07-05T07:27:36.543Z,315
2018-07-05T07:28:36.277Z,310
2018-07-05T07:29:36.541Z,310
2018-07-05T07:30:36.905Z,315
2018-07-05T07:31:37.051Z,305
2018-07-05T07:32:36.297Z,300
2018-07-05T07:33:36.815Z,295
2018-07-05T07:34:36.819Z,285
2018-07-05T07:35:36.662Z,270
2018-07-05T07:36:36.319Z,260
2018-07-05T07:37:36.941Z,260
2018-07-05T07:38:36.329Z,255
2018-07-05T07:39:36.335Z,250
2018-07-05T07:40:36.909Z,250
2018-07-05T07:41:36.354Z,250
2018-07-05T07:42:36.608Z,250
2018-07-05T07:43:36.362Z,250
2018-07-05T07:44:36.610Z,245
2018-07-05T07:45:37.653Z,240
2018-07-05T07:46:36.626Z,240
2018-07-05T07:47:36.640Z,235
2018-07-05T07:48:36.627Z,235
2018-07-05T07:49:36.389Z,230
2018-07-05T07:50:36.400Z,230
2018-07-05T07:51:36.395Z,230
2018-07-05T07:52:36.414Z,230
2018-07-05T07:53:36.923Z,230
2018-07-05T07:54:36.158Z,230
2018-07-05T07:55:36.778Z,230
2018-07-05T07:56:36.953Z,230
2018-07-05T07:57:37.158Z,230
2018-07-05T07:58:36.682Z,230
2018-07-05T07:59:36.683Z,230
2018-07-05T08:00:36.811Z,235
2018-07-05T08:01:36.693Z,240
2018-07-05T08:02:36.963Z,245
2018-07-05T08:03:36.719Z,245
2018-07-05T08:04:36.979Z,250
2018-07-05T08:05:36.529Z,250
2018-07-05T08:06:36.493Z,255
2018-07-05T08:07:37.002Z,250
2018-07-05T08:08:36.223Z,250
2018-07-05T08:09:36.509Z,245
2018-07-05T08:10:36.753Z,245
2018-07-05T08:11:36.755Z,240
2018-07-05T08:12:37.009Z,235
2018-07-05T08:13:36.775Z,230
2018-07-05T08:14:37.024Z,225
2018-07-05T08:15:36.515Z,220
2018-07-05T08:16:36.529Z,220
2018-07-05T08:17:36.527Z,215
2018-07-05T08:18:36.810Z,215
2018-07-05T08:19:36.813Z,215
2018-07-05T08:20:36.421Z,210
2018-07-05T08:21:36.277Z,210
2018-07-05T08:22:36.565Z,210
2018-07-05T08:23:36.807Z,210
2018-07-05T08:24:36.547Z,210
2018-07-05T08:25:36.562Z,205
2018-07-05T08:26:36.309Z,205
2018-07-05T08:27:36.312Z,205
2018-07-05T08:28:37.098Z,205
2018-07-05T08:29:37.097Z,205
2018-07-05T08:30:36.584Z,205
2018-07-05T08:31:36.390Z,205
2018-07-05T08:32:36.605Z,205
2018-07-05T08:33:36.844Z,205
2018-07-05T08:34:36.609Z,205
2018-07-05T08:35:36.885Z,210
2018-07-05T08:36:36.644Z,210
2018-07-05T08:37:37.129Z,215
2018-07-05T08:38:36.897Z,220
2018-07-05T08:39:37.123Z,220
2018-07-05T08:40:37.169Z,220
2018-07-05T08:41:36.385Z,220
2018-07-05T08:42:36.889Z,220
2018-07-05T08:43:36.643Z,230
2018-07-05T08:44:36.920Z,225
2018-07-05T08:45:36.666Z,230
2018-07-05T08:46:36.904Z,230
2018-07-05T08:47:36.921Z,230
2018-07-05T08:48:36.446Z,235
2018-07-05T08:49:37.164Z,235
2018-07-05T08:50:37.181Z,240
2018-07-05T08:51:36.679Z,240
2018-07-05T08:52:36.723Z,240
2018-07-05T08:53:37.199Z,240
2018-07-05T08:54:37.201Z,240
2018-07-05T08:55:37.207Z,245
2018-07-05T08:56:37.220Z,235
2018-07-05T08:57:36.708Z,235
2018-07-05T08:58:36.473Z,235
2018-07-05T08:59:37.236Z,235
2018-07-05T09:00:36.800Z,235
2018-07-05T09:01:36.728Z,230
2018-07-05T09:02:36.986Z,230
2018-07-05T09:03:36.762Z,225
2018-07-05T09:04:36.998Z,220
2018-07-05T09:05:36.759Z,220
2018-07-05T09:06:37.000Z,220
2018-07-05T09:07:36.489Z,215
2018-07-05T09:08:36.767Z,215
2018-07-05T09:09:37.269Z,215
2018-07-05T09:10:37.047Z,215
2018-07-05T09:11:36.779Z,215
2018-07-05T09:12:36.801Z,215
2018-07-05T09:13:36.805Z,215
2018-07-05T09:14:36.531Z,220
2018-07-05T09:15:37.077Z,220
2018-07-05T09:16:36.540Z,220
2018-07-05T09:17:36.791Z,220
2018-07-05T09:18:37.031Z,220
2018-07-05T09:19:36.553Z,220
2018-07-05T09:20:36.806Z,225
2018-07-05T09:21:36.863Z,225
2018-07-05T09:22:37.064Z,225
2018-07-05T09:23:37.658Z,230
2018-07-05T09:24:37.124Z,230
2018-07-05T09:25:37.089Z,235
2018-07-05T09:26:36.578Z,235
2018-07-05T09:27:36.843Z,235
2018-07-05T09:28:37.146Z,235
2018-07-05T09:29:36.601Z,235
2018-07-05T09:30:36.631Z,235
2018-07-05T09:31:36.609Z,230
2018-07-05T09:32:36.855Z,230
2018-07-05T09:33:36.875Z,225
2018-07-05T09:34:37.133Z,225
2018-07-05T09:35:37.397Z,225
2018-07-05T09:36:36.913Z,225
2018-07-05T09:37:37.290Z,230
2018-07-05T09:38:36.641Z,220
2018-07-05T09:39:37.169Z,225
2018-07-05T09:40:37.484Z,225
2018-07-05T09:41:36.651Z,225
2018-07-05T09:42:36.905Z,230
2018-07-05T09:43:36.903Z,230
2018-07-05T09:44:37.416Z,225
2018-07-05T09:45:36.983Z,225
2018-07-05T09:46:36.928Z,225
2018-07-05T09:47:36.941Z,225
2018-07-05T09:48:36.937Z,225
2018-07-05T09:49:36.994Z,225
2018-07-05T09:50:37.016Z,230
2018-07-05T09:51:36.982Z,220
2018-07-05T09:52:38.338Z,210
2018-07-05T09:53:36.955Z,200
2018-07-05T09:54:37.006Z,190
2018-07-05T09:55:37.229Z,185
2018-07-05T09:56:37.224Z,175
2018-07-05T09:57:37.470Z,170
2018-07-05T09:58:37.496Z,165
2018-07-05T09:59:36.732Z,165
2018-07-05T10:00:37.502Z,160
2018-07-05T10:01:36.736Z,160
2018-07-05T10:02:37.242Z,155
2018-07-05T10:03:37.604Z,155
2018-07-05T10:04:37.250Z,155
2018-07-05T10:05:37.532Z,155
2018-07-05T10:06:37.268Z,155
2018-07-05T10:07:37.013Z,165
2018-07-05T10:08:37.284Z,165
2018-07-05T10:09:37.274Z,170
2018-07-05T10:10:37.033Z,175
2018-07-05T10:11:37.027Z,180
2018-07-05T10:12:37.028Z,185
2018-07-05T10:13:38.465Z,185
2018-07-05T10:14:37.307Z,185
2018-07-05T10:15:37.108Z,190
2018-07-05T10:16:37.042Z,190
2018-07-05T10:17:36.798Z,190
2018-07-05T10:18:37.305Z,195
2018-07-05T10:19:37.134Z,195
2018-07-05T10:20:37.640Z,200
2018-07-05T10:21:37.305Z,200
2018-07-05T10:22:36.820Z,200
2018-07-05T10:54:06.922Z,155
2018-07-05T10:55:06.136Z,155
2018-07-05T10:56:06.926Z,160
2018-07-05T10:57:06.935Z,160
2018-07-05T10:58:06.707Z,165
2018-07-05T10:59:06.939Z,165
2018-07-05T11:00:06.924Z,165
2018-07-05T11:01:06.212Z,165
2018-07-05T11:02:06.433Z,165
2018-07-05T11:03:06.956Z,165
2018-07-05T11:04:06.676Z,165
2018-07-05T11:05:06.684Z,165
2018-07-05T11:06:06.410Z,165
2018-07-05T11:07:06.451Z,165
2018-07-05T11:08:06.960Z,170
2018-07-05T11:09:06.446Z,170
2018-07-05T11:10:06.688Z,170
2018-07-05T11:11:06.690Z,170
2018-07-05T11:12:06.692Z,175
2018-07-05T11:13:06.701Z,175
2018-07-05T11:14:06.165Z,175
2018-07-05T11:15:06.212Z,175
2018-07-05T11:16:06.689Z,175
2018-07-05T11:17:06.430Z,180
2018-07-05T11:18:06.433Z,185
2018-07-05T11:19:06.725Z,185
2018-07-05T11:20:06.735Z,190
2018-07-05T11:21:06.623Z,195
2018-07-05T11:22:06.978Z,200
2018-07-05T11:23:06.991Z,205
2018-07-05T11:24:06.721Z,205
2018-07-05T11:25:06.728Z,210
2018-07-05T11:26:06.722Z,215
2018-07-05T11:27:06.733Z,220
2018-07-05T11:28:06.716Z,225
2018-07-05T11:29:06.758Z,225
2018-07-05T11:30:06.494Z,225
2018-07-05T11:31:06.756Z,230
2018-07-05T11:32:07.010Z,230
2018-07-05T11:33:06.754Z,230
2018-07-05T11:34:06.479Z,235
2018-07-05T11:35:06.739Z,235
2018-07-05T11:36:06.539Z,235
2018-07-05T11:37:06.232Z,230
2018-07-05T11:38:06.500Z,230
2018-07-05T11:39:06.290Z,230
2018-07-05T11:40:07.033Z,230
2018-07-05T11:41:07.013Z,230
2018-07-05T11:42:06.507Z,230
2018-07-05T11:43:06.530Z,230
2018-07-05T11:44:06.580Z,230
2018-07-05T11:45:06.811Z,230
2018-07-05T11:46:06.559Z,230
2018-07-05T11:47:06.543Z,225
2018-07-05T11:48:06.676Z,230
2018-07-05T11:49:06.301Z,230
2018-07-05T11:50:06.796Z,230
2018-07-05T11:51:06.901Z,235
2018-07-05T11:52:06.845Z,235
2018-07-05T11:53:07.067Z,235
2018-07-05T11:54:07.612Z,235
2018-07-05T11:55:06.823Z,230
2018-07-05T11:56:06.558Z,225
2018-07-05T11:57:06.335Z,220
2018-07-05T11:58:06.618Z,220
2018-07-05T11:59:06.333Z,215
2018-07-05T12:00:06.608Z,210
2018-07-05T12:01:07.148Z,205
2018-07-05T12:02:07.449Z,205
2018-07-05T12:03:06.836Z,200
2018-07-05T12:04:06.925Z,205
2018-07-05T12:05:06.415Z,205
2018-07-05T12:06:06.860Z,205
2018-07-05T12:07:06.867Z,200
2018-07-05T12:08:06.628Z,200
2018-07-05T12:09:06.622Z,200
2018-07-05T12:10:06.899Z,200
2018-07-05T12:11:06.897Z,210
2018-07-05T12:12:06.638Z,220
2018-07-05T12:13:06.663Z,230
2018-07-05T12:14:06.647Z,245
2018-07-05T12:15:06.389Z,250
2018-07-05T12:16:06.641Z,255
2018-07-05T12:17:07.147Z,265
2018-07-05T12:18:06.902Z,265
2018-07-05T12:19:06.427Z,270
2018-07-05T12:20:06.684Z,275
2018-07-05T12:21:06.152Z,275
2018-07-05T12:22:06.929Z,280
2018-07-05T12:23:06.686Z,285
2018-07-05T12:24:07.601Z,290
2018-07-05T12:25:06.437Z,290
2018-07-05T12:26:06.689Z,290
2018-07-05T12:27:06.952Z,285
2018-07-05T12:28:06.969Z,285
2018-07-05T12:29:07.158Z,290
2018-07-05T12:30:06.980Z,290
2018-07-05T12:31:07.213Z,290
2018-07-05T12:32:06.721Z,300
2018-07-05T12:33:06.727Z,295
2018-07-05T12:34:06.710Z,295
2018-07-05T12:35:06.713Z,295
2018-07-05T12:36:06.988Z,285
2018-07-05T12:37:06.982Z,285
2018-07-05T12:38:07.103Z,275
2018-07-05T12:39:07.629Z,275
2018-07-05T12:40:07.010Z,275
2018-07-05T12:41:07.044Z,265
2018-07-05T12:42:07.040Z,260
2018-07-05T12:43:06.758Z,255
2018-07-05T12:44:07.007Z,255
2018-07-05T12:45:06.505Z,260
2018-07-05T12:46:07.007Z,270
2018-07-05T12:47:06.523Z,280
2018-07-05T12:48:07.404Z,280
2018-07-05T12:49:07.025Z,280
2018-07-05T12:50:07.027Z,280
2018-07-05T12:51:07.034Z,275
2018-07-05T12:52:07.479Z,265
2018-07-05T12:53:07.035Z,250
2018-07-05T12:54:06.797Z,250
2018-07-05T12:55:06.795Z,230
2018-07-05T12:56:07.382Z,220
2018-07-05T12:57:07.326Z,210
2018-07-05T12:58:07.312Z,205
2018-07-05T12:59:06.833Z,200
2018-07-05T13:00:06.594Z,195
2018-07-05T13:01:07.090Z,190
2018-07-05T13:02:07.335Z,180
2018-07-05T13:03:07.370Z,170
2018-07-05T13:04:07.420Z,160
2018-07-05T13:05:06.585Z,160
2018-07-05T13:06:07.086Z,160
2018-07-05T13:07:06.612Z,165
2018-07-05T13:08:07.096Z,170
2018-07-05T13:09:07.102Z,165
2018-07-05T13:10:07.105Z,160
2018-07-05T13:11:07.415Z,155
2018-07-05T13:12:07.121Z,155
2018-07-05T13:13:06.870Z,160
2018-07-05T13:14:06.870Z,165
2018-07-05T13:15:06.876Z,160
2018-07-05T13:16:07.129Z,155
2018-07-05T13:17:06.651Z,150
2018-07-05T13:18:06.656Z,150
2018-07-05T13:19:07.155Z,155
2018-07-05T13:20:06.896Z,175
2018-07-05T13:21:07.155Z,200
2018-07-05T13:22:06.895Z,230
2018-07-05T13:23:06.910Z,245
2018-07-05T13:24:07.719Z,250
2018-07-05T13:25:07.440Z,255
2018-07-05T13:26:06.684Z,260
2018-07-05T13:27:06.662Z,255
2018-07-05T13:28:06.929Z,250
2018-07-05T13:29:06.941Z,245
2018-07-05T13:30:07.202Z,240
2018-07-05T13:31:06.946Z,225
2018-07-05T13:32:06.945Z,200
2018-07-05T13:33:07.498Z,170
2018-07-05T13:34:06.948Z,140
2018-07-05T13:35:07.485Z,115
2018-07-05T13:36:06.965Z,95
2018-07-05T13:37:07.222Z,80
2018-07-05T13:38:07.233Z,65
2018-07-05T13:39:07.264Z,60
2018-07-05T13:40:06.744Z,50
2018-07-05T13:41:07.233Z,50
2018-07-05T13:42:07.245Z,45
2018-07-05T13:43:07.237Z,45
2018-07-05T13:44:06.998Z,45
2018-07-05T13:45:07.008Z,45
2018-07-05T13:46:07.281Z,45
2018-07-05T13:47:07.435Z,45
2018-07-05T13:48:07.251Z,45
2018-07-05T13:49:07.530Z,45
2018-07-05T13:50:07.295Z,45
2018-07-05T13:51:07.052Z,50
2018-07-05T13:52:07.304Z,60
2018-07-05T13:53:07.580Z,65
2018-07-05T13:54:07.839Z,75
2018-07-05T13:55:07.020Z,95
2018-07-05T13:56:07.326Z,110
2018-07-05T13:57:07.109Z,110
2018-07-05T13:58:07.654Z,130
2018-07-05T13:59:08.077Z,140
2018-07-05T14:00:07.036Z,160
2018-07-05T14:01:07.036Z,165
2018-07-05T14:02:06.783Z,170
2018-07-05T14:03:07.619Z,180
2018-07-05T14:04:07.598Z,185
2018-07-05T14:05:06.551Z,195
2018-07-05T14:06:07.048Z,200
2018-07-05T14:07:07.344Z,190
2018-07-05T14:08:07.885Z,165
2018-07-05T14:09:07.410Z,145
2018-07-05T14:10:07.370Z,120
2018-07-05T14:11:07.049Z,110
2018-07-05T14:12:07.356Z,100
2018-07-05T14:13:07.090Z,100
2018-07-05T14:14:07.578Z,105
2018-07-05T14:15:07.073Z,120
2018-07-05T14:16:07.335Z,130
2018-07-05T14:17:07.335Z,140
2018-07-05T14:18:07.357Z,145
2018-07-05T14:19:07.355Z,150
2018-07-05T14:20:06.821Z,155
2018-07-05T14:21:07.583Z,150
2018-07-05T14:22:07.369Z,155
2018-07-05T14:23:07.359Z,150
2018-07-05T14:24:07.090Z,135
2018-07-05T14:25:07.934Z,125
2018-07-05T14:26:06.849Z,125
2018-07-05T14:27:07.367Z,135
2018-07-05T14:28:07.427Z,130
2018-07-05T14:29:07.089Z,120
2018-07-05T14:30:07.434Z,120
2018-07-05T14:31:07.393Z,125
2018-07-05T14:32:06.638Z,130
2018-07-05T14:33:07.146Z,125
2018-07-05T14:34:07.116Z,115
2018-07-05T14:35:07.420Z,110
2018-07-05T14:36:07.123Z,105
2018-07-05T14:37:07.411Z,115
2018-07-05T14:38:07.288Z,120
2018-07-05T14:39:07.162Z,120
2018-07-05T14:40:06.881Z,115
2018-07-05T14:41:07.425Z,110
2018-07-05T14:42:07.150Z,115
2018-07-05T14:43:06.885Z,125
2018-07-05T14:44:07.402Z,130
2018-07-05T14:45:07.297Z,135